createdAt,value
2022-10-01T00:00:50.437Z,8.82
2022-10-01T00:03:17.560Z,9.95
2022-10-01T00:05:44.471Z,8.93
2022-10-01T00:08:11.821Z,7.97
2022-10-01T00:10:41.877Z,8.65
2022-10-01T00:13:08.965Z,11.15
2022-10-01T00:15:35.992Z,9.60
2022-10-01T00:18:02.886Z,10.57
2022-10-01T00:20:30.091Z,12.80
2022-10-01T00:22:56.921Z,15.40
2022-10-01T00:25:25.527Z,10.77
2022-10-01T00:27:52.502Z,11.52
2022-10-01T00:30:19.779Z,12.07
2022-10-01T00:32:46.686Z,10.68
2022-10-01T00:35:14.499Z,12.77
2022-10-01T00:37:42.567Z,9.57
2022-10-01T00:40:09.704Z,10.18
2022-10-01T00:42:36.546Z,11.75
2022-10-01T00:45:03.498Z,12.35
2022-10-01T00:47:37.600Z,13.05
2022-10-01T00:50:23.098Z,12.82
2022-10-01T00:52:55.260Z,13.00
2022-10-01T00:55:43.950Z,12.25
2022-10-01T00:58:11.787Z,11.02
2022-10-01T01:00:38.730Z,11.88
2022-10-01T01:03:05.915Z,14.02
2022-10-01T01:05:32.806Z,12.43
2022-10-01T01:08:01.556Z,15.13
2022-10-01T01:10:35.206Z,12.82
2022-10-01T01:13:24.244Z,13.70
2022-10-01T01:16:15.609Z,11.88
2022-10-01T01:18:50.568Z,14.25
2022-10-01T01:21:29.775Z,12.52
2022-10-01T01:24:21.624Z,14.05
2022-10-01T01:26:57.131Z,14.10
2022-10-01T01:29:44.488Z,18.48
2022-10-01T01:32:15.051Z,17.88
2022-10-01T01:34:43.670Z,14.50
2022-10-01T01:37:12.408Z,15.30
2022-10-01T01:39:41.447Z,11.00
2022-10-01T01:42:13.490Z,10.23
2022-10-01T01:44:41.250Z,17.35
2022-10-01T01:47:08.382Z,12.93
2022-10-01T01:49:35.952Z,16.35
2022-10-01T01:52:16.274Z,16.15
2022-10-01T01:54:49.742Z,13.75
2022-10-01T01:57:17.599Z,13.32
2022-10-01T01:59:44.471Z,15.48
2022-10-01T02:02:14.998Z,13.15
2022-10-01T02:04:44.868Z,13.35
2022-10-01T02:07:26.795Z,11.23
2022-10-01T02:10:07.593Z,16.27
2022-10-01T02:12:53.662Z,13.98
2022-10-01T02:15:36.113Z,18.17
2022-10-01T02:21:16.704Z,12.75
2022-10-01T02:23:48.063Z,12.93
2022-10-01T02:26:17.708Z,11.50
2022-10-01T02:28:44.527Z,15.73
2022-10-01T02:31:13.937Z,14.05
2022-10-01T02:33:41.162Z,15.25
2022-10-01T02:36:08.266Z,14.52
2022-10-01T02:38:35.567Z,15.52
2022-10-01T02:41:03.008Z,15.05
2022-10-01T02:43:33.658Z,12.57
2022-10-01T02:46:15.156Z,11.85
2022-10-01T02:48:41.986Z,16.55
2022-10-01T02:51:30.003Z,16.50
2022-10-01T02:54:01.305Z,15.80
2022-10-01T02:56:57.119Z,17.65
2022-10-01T02:59:24.002Z,15.60
2022-10-01T03:01:50.917Z,16.30
2022-10-01T03:04:19.262Z,14.02
2022-10-01T03:06:46.439Z,16.02
2022-10-01T03:09:13.742Z,19.13
2022-10-01T03:11:40.597Z,16.30
2022-10-01T03:14:07.509Z,21.80
2022-10-01T03:16:34.366Z,16.33
2022-10-01T03:19:01.368Z,19.33
2022-10-01T03:21:28.261Z,19.52
2022-10-01T03:23:55.157Z,16.48
2022-10-01T03:26:21.982Z,18.45
2022-10-01T03:28:48.910Z,24.42
2022-10-01T03:31:18.612Z,19.02
2022-10-01T03:33:45.531Z,16.75
2022-10-01T03:36:12.370Z,21.48
2022-10-01T03:38:39.271Z,18.65
2022-10-01T03:41:06.174Z,17.27
2022-10-01T03:43:33.007Z,14.38
2022-10-01T03:45:59.867Z,19.67
2022-10-01T03:48:26.710Z,15.30
2022-10-01T03:50:57.790Z,15.13
2022-10-01T03:53:25.340Z,18.05
2022-10-01T03:55:52.468Z,14.73
2022-10-01T03:58:19.648Z,18.25
2022-10-01T04:00:47.161Z,20.58
2022-10-01T04:03:14.575Z,21.08
2022-10-01T04:05:42.510Z,18.60
2022-10-01T04:08:09.490Z,21.77
2022-10-01T04:10:36.438Z,15.25
2022-10-01T04:13:03.800Z,19.45
2022-10-01T04:15:30.886Z,16.38
2022-10-01T04:17:58.066Z,12.05
2022-10-01T04:20:25.267Z,18.27
2022-10-01T04:22:52.099Z,16.63
2022-10-01T04:25:18.989Z,16.80
2022-10-01T04:27:57.284Z,16.13
2022-10-01T04:30:25.169Z,13.85
2022-10-01T04:32:52.040Z,14.93
2022-10-01T04:35:18.980Z,13.65
2022-10-01T04:37:45.907Z,14.98
2022-10-01T04:40:12.726Z,13.57
2022-10-01T04:42:43.742Z,20.27
2022-10-01T04:45:11.045Z,14.43
2022-10-01T04:47:38.039Z,15.57
2022-10-01T04:50:05.416Z,15.93
2022-10-01T04:52:32.226Z,18.23
2022-10-01T04:54:59.055Z,18.13
2022-10-01T04:57:25.918Z,19.88
2022-10-01T04:59:52.792Z,17.85
2022-10-01T05:02:20.098Z,18.50
2022-10-01T05:04:47.565Z,17.27
2022-10-01T05:07:14.498Z,22.05
2022-10-01T05:09:41.705Z,16.60
2022-10-01T05:12:08.553Z,22.80
2022-10-01T05:14:35.373Z,19.65
2022-10-01T05:17:02.301Z,18.88
2022-10-01T05:19:29.639Z,17.05
2022-10-01T05:21:56.492Z,15.93
2022-10-01T05:24:23.911Z,24.55
2022-10-01T05:26:50.773Z,16.60
2022-10-01T05:29:18.618Z,18.38
2022-10-01T05:31:45.585Z,19.42
2022-10-01T05:34:12.581Z,20.77
2022-10-01T05:36:39.375Z,21.20
2022-10-01T05:39:06.336Z,19.48
2022-10-01T05:41:33.452Z,19.70
2022-10-01T05:44:00.624Z,20.13
2022-10-01T05:46:27.467Z,20.25
2022-10-01T05:48:54.391Z,20.63
2022-10-01T05:51:21.405Z,20.15
2022-10-01T05:53:50.430Z,24.48
2022-10-01T05:56:17.519Z,19.80
2022-10-01T05:58:45.162Z,17.17
2022-10-01T06:01:12.312Z,22.40
2022-10-01T06:03:39.242Z,18.67
2022-10-01T06:06:06.187Z,20.00
2022-10-01T06:08:37.651Z,16.58
2022-10-01T06:11:04.608Z,20.23
2022-10-01T06:13:32.056Z,16.77
2022-10-01T06:15:58.951Z,21.48
2022-10-01T06:18:27.329Z,16.52
2022-10-01T06:20:54.205Z,21.80
2022-10-01T06:23:21.164Z,20.52
2022-10-01T06:25:48.009Z,16.13
2022-10-01T06:28:15.510Z,15.35
2022-10-01T06:30:42.889Z,19.92
2022-10-01T06:33:11.848Z,20.48
2022-10-01T06:35:56.690Z,18.02
2022-10-01T06:38:23.897Z,19.27
2022-10-01T06:41:00.429Z,25.75
2022-10-01T06:43:28.630Z,20.67
2022-10-01T06:45:55.701Z,20.00
2022-10-01T06:48:22.837Z,16.30
2022-10-01T06:50:50.591Z,19.05
2022-10-01T06:53:17.647Z,18.80
2022-10-01T06:55:44.767Z,18.38
2022-10-01T06:58:15.685Z,18.02
2022-10-01T07:00:43.273Z,17.40
2022-10-01T07:03:16.315Z,18.58
2022-10-01T07:05:43.330Z,21.67
2022-10-01T07:08:10.354Z,22.63
2022-10-01T07:10:38.089Z,20.10
2022-10-01T07:13:16.617Z,19.83
2022-10-01T07:15:44.112Z,18.02
2022-10-01T07:18:11.352Z,19.05
2022-10-01T07:20:40.015Z,14.95
2022-10-01T07:23:08.444Z,15.15
2022-10-01T07:25:35.319Z,22.55
2022-10-01T07:28:04.469Z,18.35
2022-10-01T07:30:31.669Z,18.50
2022-10-01T07:32:58.656Z,19.27
2022-10-01T07:35:25.519Z,20.23
2022-10-01T07:37:53.673Z,17.27
2022-10-01T07:40:20.588Z,19.55
2022-10-01T07:42:56.934Z,23.52
2022-10-01T07:45:23.914Z,22.73
2022-10-01T07:48:00.603Z,18.80
2022-10-01T07:50:27.896Z,17.98
2022-10-01T07:52:56.135Z,24.30
2022-10-01T07:55:24.008Z,20.58
2022-10-01T07:57:55.200Z,16.08
2022-10-01T08:00:22.687Z,17.90
2022-10-01T08:02:50.793Z,15.38
2022-10-01T08:05:21.844Z,14.57
2022-10-01T08:07:49.042Z,14.50
2022-10-01T08:10:17.518Z,18.63
2022-10-01T08:12:44.744Z,16.48
2022-10-01T08:15:13.005Z,20.17
2022-10-01T08:17:40.115Z,18.42
2022-10-01T08:20:07.983Z,19.55
2022-10-01T08:22:38.568Z,14.50
2022-10-01T08:25:08.295Z,16.52
2022-10-01T08:27:35.397Z,14.68
2022-10-01T08:30:02.273Z,20.75
2022-10-01T08:32:30.943Z,19.88
2022-10-01T08:34:59.946Z,13.90
2022-10-01T08:37:27.922Z,18.95
2022-10-01T08:39:55.483Z,17.65
2022-10-01T08:42:41.824Z,20.92
2022-10-01T08:45:14.548Z,16.52
2022-10-01T08:47:49.420Z,20.48
2022-10-01T08:50:45.238Z,13.55
2022-10-01T08:53:16.814Z,15.48
2022-10-01T08:55:43.929Z,19.55
2022-10-01T08:58:12.834Z,13.65
2022-10-01T09:00:41.816Z,17.00
2022-10-01T09:03:12.297Z,14.05
2022-10-01T09:06:10.419Z,15.85
2022-10-01T09:08:46.272Z,13.82
2022-10-01T09:11:25.208Z,15.30
2022-10-01T09:14:17.607Z,16.92
2022-10-01T09:16:52.651Z,14.60
2022-10-01T09:19:42.802Z,14.20
2022-10-01T09:22:15.659Z,15.50
2022-10-01T09:24:50.677Z,15.80
2022-10-01T09:27:24.462Z,14.88
2022-10-01T09:30:21.778Z,13.10
2022-10-01T09:32:51.724Z,14.50
2022-10-01T09:35:43.887Z,11.93
2022-10-01T09:38:34.110Z,12.02
2022-10-01T09:41:01.099Z,12.20
2022-10-01T09:43:29.615Z,16.88
2022-10-01T09:45:56.624Z,12.98
2022-10-01T09:48:43.675Z,13.70
2022-10-01T09:51:11.451Z,12.88
2022-10-01T09:53:44.209Z,15.38
2022-10-01T09:56:24.471Z,9.82
2022-10-01T09:58:53.853Z,16.67
2022-10-01T10:01:34.921Z,11.88
2022-10-01T10:04:01.994Z,13.32
2022-10-01T10:06:29.526Z,15.75
2022-10-01T10:08:57.429Z,11.27
2022-10-01T10:11:25.736Z,10.90
2022-10-01T10:13:54.578Z,13.05
2022-10-01T10:16:37.009Z,13.90
2022-10-01T10:19:15.670Z,16.20
2022-10-01T10:21:53.084Z,14.48
2022-10-01T10:24:40.191Z,10.88
2022-10-01T10:27:20.296Z,11.77
2022-10-01T10:29:47.194Z,15.40
2022-10-01T10:32:26.516Z,12.82
2022-10-01T10:34:56.959Z,11.27
2022-10-01T10:37:29.978Z,8.63
2022-10-01T10:39:56.854Z,12.10
2022-10-01T10:42:25.153Z,11.43
2022-10-01T10:44:53.445Z,13.80
2022-10-01T10:47:20.901Z,11.82
2022-10-01T10:49:52.667Z,10.55
2022-10-01T10:52:20.972Z,17.75
2022-10-01T10:54:48.716Z,12.73
2022-10-01T10:57:30.183Z,13.63
2022-10-01T11:00:01.621Z,12.20
2022-10-01T11:02:30.468Z,11.63
2022-10-01T11:05:19.206Z,9.55
2022-10-01T11:07:46.670Z,11.95
2022-10-01T11:10:31.676Z,13.18
2022-10-01T11:13:04.929Z,10.45
2022-10-01T11:15:43.294Z,11.10
2022-10-01T11:18:51.731Z,13.07
2022-10-01T11:21:27.189Z,11.05
2022-10-01T11:24:20.201Z,11.30
2022-10-01T11:27:13.154Z,10.45
2022-10-01T11:30:01.504Z,13.95
2022-10-01T11:32:53.827Z,11.73
2022-10-01T11:35:42.214Z,13.55
2022-10-01T11:38:30.752Z,11.77
2022-10-01T11:41:23.667Z,12.20
2022-10-01T11:43:59.816Z,12.77
2022-10-01T11:46:35.251Z,12.77
2022-10-01T11:49:36.455Z,9.45
2022-10-01T11:52:15.062Z,8.18
2022-10-01T11:54:56.524Z,9.40
2022-10-01T11:57:41.980Z,11.10
2022-10-01T12:00:10.830Z,13.95
2022-10-01T12:02:54.026Z,11.35
2022-10-01T12:05:22.502Z,13.30
2022-10-01T12:07:49.738Z,14.43
2022-10-01T12:10:37.460Z,12.57
2022-10-01T12:13:10.445Z,10.57
2022-10-01T12:15:50.433Z,11.63
2022-10-01T12:18:44.514Z,10.30
2022-10-01T12:21:19.398Z,14.07
2022-10-01T12:23:52.915Z,11.93
2022-10-01T12:26:35.348Z,10.90
2022-10-01T12:29:23.933Z,11.63
2022-10-01T12:32:15.774Z,13.40
2022-10-01T12:34:49.362Z,13.45
2022-10-01T12:37:34.672Z,14.00
2022-10-01T12:40:31.020Z,16.48
2022-10-01T12:43:31.999Z,15.43
2022-10-01T12:46:20.990Z,14.15
2022-10-01T12:49:04.042Z,15.52
2022-10-01T12:51:54.182Z,10.40
2022-10-01T12:54:44.486Z,11.45
2022-10-01T12:57:33.011Z,12.93
2022-10-01T13:00:09.203Z,11.80
2022-10-01T13:02:45.207Z,12.95
2022-10-01T13:05:24.903Z,12.20
2022-10-01T13:08:01.532Z,12.10
2022-10-01T13:11:03.924Z,10.52
2022-10-01T13:13:32.961Z,11.88
2022-10-01T13:16:12.870Z,11.93
2022-10-01T13:18:42.955Z,9.65
2022-10-01T13:21:40.118Z,13.70
2022-10-01T13:24:29.278Z,12.75
2022-10-01T13:26:56.479Z,9.63
2022-10-01T13:29:54.290Z,11.68
2022-10-01T13:32:36.233Z,10.30
2022-10-01T13:35:21.510Z,15.00
2022-10-01T13:37:48.366Z,12.98
2022-10-01T13:40:23.902Z,9.93
2022-10-01T13:42:50.774Z,12.45
2022-10-01T13:45:24.968Z,15.75
2022-10-01T13:47:51.866Z,14.98
2022-10-01T13:50:27.241Z,11.20
2022-10-01T13:53:25.487Z,13.25
2022-10-01T13:55:53.349Z,10.13
2022-10-01T13:58:40.027Z,9.75
2022-10-01T14:01:23.603Z,10.80
2022-10-01T14:04:24.183Z,13.73
2022-10-01T14:06:53.604Z,10.02
2022-10-01T14:09:27.283Z,10.98
2022-10-01T14:12:24.411Z,10.52
2022-10-01T14:15:11.279Z,10.98
2022-10-01T14:17:40.181Z,12.98
2022-10-01T14:20:07.608Z,13.20
2022-10-01T14:22:59.354Z,10.82
2022-10-01T14:25:29.127Z,9.98
2022-10-01T14:28:20.782Z,10.20
2022-10-01T14:30:50.811Z,13.45
2022-10-01T14:33:34.195Z,16.48
2022-10-01T14:36:25.756Z,11.93
2022-10-01T14:39:03.760Z,11.97
2022-10-01T14:41:33.714Z,13.63
2022-10-01T14:44:01.562Z,8.40
2022-10-01T14:46:28.504Z,12.90
2022-10-01T14:48:59.540Z,12.70
2022-10-01T14:51:30.879Z,15.95
2022-10-01T14:53:58.883Z,11.87
2022-10-01T14:56:25.827Z,13.43
2022-10-01T14:58:55.007Z,11.32
2022-10-01T15:01:22.990Z,10.25
2022-10-01T15:03:50.453Z,10.73
2022-10-01T15:06:20.753Z,10.23
2022-10-01T15:08:49.509Z,10.55
2022-10-01T15:11:24.266Z,13.45
2022-10-01T15:13:52.211Z,10.30
2022-10-01T15:16:23.820Z,9.18
2022-10-01T15:18:58.285Z,16.48
2022-10-01T15:21:27.199Z,10.30
2022-10-01T15:23:53.994Z,9.77
2022-10-01T15:26:27.497Z,10.82
2022-10-01T15:29:07.150Z,11.05
2022-10-01T15:31:34.065Z,10.55
2022-10-01T15:34:02.406Z,11.35
2022-10-01T15:36:29.365Z,10.57
2022-10-01T15:38:56.365Z,8.75
2022-10-01T15:41:32.262Z,9.60
2022-10-01T15:44:02.501Z,8.27
2022-10-01T15:46:32.693Z,9.85
2022-10-01T15:49:15.449Z,11.63
2022-10-01T15:54:48.403Z,10.88
2022-10-01T15:57:17.745Z,6.63
2022-10-01T15:59:44.602Z,10.48
2022-10-01T16:02:18.632Z,9.40
2022-10-01T16:04:46.141Z,10.38
2022-10-01T16:07:20.750Z,10.77
2022-10-01T16:09:57.254Z,9.50
2022-10-01T16:12:24.830Z,11.15
2022-10-01T16:15:02.343Z,9.25
2022-10-01T16:17:38.824Z,9.18
2022-10-01T16:20:14.726Z,11.20
2022-10-01T16:22:41.815Z,12.32
2022-10-01T16:25:23.664Z,9.98
2022-10-01T16:28:02.260Z,12.20
2022-10-01T16:30:29.789Z,13.98
2022-10-01T16:32:58.005Z,9.35
2022-10-01T16:35:35.917Z,10.73
2022-10-01T16:38:06.667Z,10.45
2022-10-01T16:40:36.893Z,9.68
2022-10-01T16:43:03.735Z,11.95
2022-10-01T16:45:36.666Z,9.95
2022-10-01T16:48:15.738Z,11.05
2022-10-01T16:50:43.168Z,12.00
2022-10-01T16:53:15.332Z,9.63
2022-10-01T16:58:09.611Z,10.63
2022-10-01T17:00:39.755Z,10.45
2022-10-01T17:03:09.051Z,11.50
2022-10-01T17:05:38.730Z,9.98
2022-10-01T17:08:11.218Z,9.07
2022-10-01T17:10:47.645Z,10.27
2022-10-01T17:13:15.083Z,10.35
2022-10-01T17:15:42.142Z,11.90
2022-10-01T17:18:09.642Z,10.45
2022-10-01T17:20:38.145Z,13.55
2022-10-01T17:23:05.319Z,9.07
2022-10-01T17:25:34.358Z,13.98
2022-10-01T17:28:02.464Z,10.05
2022-10-01T17:30:30.144Z,14.00
2022-10-01T17:32:58.136Z,11.35
2022-10-01T17:35:25.028Z,10.85
2022-10-01T17:37:51.915Z,9.35
2022-10-01T17:40:18.815Z,11.90
2022-10-01T17:42:45.725Z,14.23
2022-10-01T17:45:13.397Z,15.07
2022-10-01T17:47:47.321Z,9.68
2022-10-01T17:50:17.349Z,15.27
2022-10-01T17:52:46.349Z,14.05
2022-10-01T17:55:13.217Z,19.42
2022-10-01T17:57:40.162Z,18.45
2022-10-01T18:00:07.711Z,17.92
2022-10-01T18:02:42.595Z,15.68
2022-10-01T18:05:12.332Z,11.50
2022-10-01T18:07:39.542Z,11.15
2022-10-01T18:10:07.812Z,11.77
2022-10-01T18:12:34.698Z,14.98
2022-10-01T18:15:02.040Z,20.17
2022-10-01T18:17:29.206Z,14.27
2022-10-01T18:19:57.144Z,11.70
2022-10-01T18:22:24.119Z,10.75
2022-10-01T18:24:50.959Z,13.75
2022-10-01T18:27:17.919Z,11.25
2022-10-01T18:29:44.836Z,15.10
2022-10-01T18:32:19.729Z,15.63
2022-10-01T18:34:52.179Z,14.55
2022-10-01T18:37:28.601Z,12.90
2022-10-01T18:40:05.067Z,10.82
2022-10-01T18:42:46.934Z,9.85
2022-10-01T18:45:21.924Z,9.82
2022-10-01T18:48:24.400Z,13.35
2022-10-01T18:50:56.925Z,11.77
2022-10-01T18:53:45.873Z,10.60
2022-10-01T18:56:27.993Z,12.70
2022-10-01T18:59:19.495Z,12.32
2022-10-01T19:02:17.161Z,11.65
2022-10-01T19:05:06.365Z,11.32
2022-10-01T19:08:07.291Z,11.95
2022-10-01T19:10:41.489Z,10.75
2022-10-01T19:13:29.366Z,14.05
2022-10-01T19:16:02.154Z,10.77
2022-10-01T19:19:01.776Z,11.88
2022-10-01T19:22:02.969Z,12.82
2022-10-01T19:24:46.170Z,12.48
2022-10-01T19:27:20.139Z,14.20
2022-10-01T19:30:02.478Z,15.05
2022-10-01T19:32:35.794Z,15.18
2022-10-01T19:35:11.994Z,12.73
2022-10-01T19:37:43.464Z,13.43
2022-10-01T19:40:35.167Z,14.40
2022-10-01T19:43:27.100Z,11.77
2022-10-01T19:46:26.443Z,12.55
2022-10-01T19:48:54.780Z,8.13
2022-10-01T19:51:23.772Z,9.95
2022-10-01T19:53:56.369Z,15.93
2022-10-01T19:56:25.553Z,13.45
2022-10-01T19:58:52.324Z,16.27
2022-10-01T20:01:20.322Z,16.00
2022-10-01T20:03:54.553Z,13.20
2022-10-01T20:06:36.638Z,14.90
2022-10-01T20:09:14.540Z,13.63
2022-10-01T20:11:53.702Z,13.00
2022-10-01T20:14:49.215Z,13.65
2022-10-01T20:17:29.557Z,13.20
2022-10-01T20:20:07.340Z,12.20
2022-10-01T20:22:45.174Z,11.55
2022-10-01T20:25:24.459Z,12.18
2022-10-01T20:28:05.174Z,21.33
2022-10-01T20:30:35.933Z,11.80
2022-10-01T20:33:15.063Z,14.02
2022-10-01T20:35:50.788Z,11.77
2022-10-01T20:38:22.262Z,14.55
2022-10-01T20:40:53.283Z,11.07
2022-10-01T20:43:28.720Z,8.27
2022-10-01T20:45:55.803Z,8.38
2022-10-01T20:48:33.791Z,6.65
2022-10-01T20:51:03.603Z,6.50
2022-10-01T20:54:07.248Z,11.50
2022-10-01T20:56:45.296Z,11.13
2022-10-01T20:59:19.887Z,9.00
2022-10-01T21:02:02.395Z,10.20
2022-10-01T21:04:50.626Z,10.90
2022-10-01T21:07:36.461Z,11.13
2022-10-01T21:10:22.132Z,8.88
2022-10-01T21:12:58.250Z,12.80
2022-10-01T21:15:25.074Z,8.00
2022-10-01T21:18:18.356Z,11.30
2022-10-01T21:21:01.546Z,10.40
2022-10-01T21:23:39.750Z,9.82
2022-10-01T21:26:24.694Z,8.02
2022-10-01T21:29:06.611Z,10.52
2022-10-01T21:31:51.207Z,11.55
2022-10-01T21:34:26.992Z,7.32
2022-10-01T21:37:12.766Z,10.95
2022-10-01T21:39:48.679Z,11.98
2022-10-01T21:42:16.785Z,12.65
2022-10-01T21:45:01.639Z,11.02
2022-10-01T21:47:47.903Z,7.40
2022-10-01T21:50:26.726Z,8.57
2022-10-01T21:53:11.476Z,8.30
2022-10-01T21:56:03.632Z,10.43
2022-10-01T21:58:49.849Z,10.45
2022-10-01T22:01:37.678Z,11.20
2022-10-01T22:04:32.473Z,14.40
2022-10-01T22:07:05.106Z,12.00
2022-10-01T22:09:57.406Z,9.75
2022-10-01T22:12:25.477Z,14.02
2022-10-01T22:14:52.325Z,12.93
2022-10-01T22:17:22.067Z,15.05
2022-10-01T22:19:53.017Z,13.80
2022-10-01T22:22:21.103Z,12.73
2022-10-01T22:24:49.937Z,13.55
2022-10-01T22:27:47.552Z,17.00
2022-10-01T22:30:17.494Z,11.32
2022-10-01T22:32:55.294Z,12.43
2022-10-01T22:35:27.338Z,19.23
2022-10-01T22:37:57.220Z,15.23
2022-10-01T22:40:27.295Z,12.32
2022-10-01T22:43:11.311Z,14.68
2022-10-01T22:46:09.170Z,12.73
2022-10-01T22:49:05.199Z,15.77
2022-10-01T22:52:10.118Z,14.32
2022-10-01T22:54:54.284Z,17.27
2022-10-01T22:57:30.059Z,13.27
2022-10-01T23:00:07.363Z,13.88
2022-10-01T23:02:52.729Z,13.38
2022-10-01T23:05:26.243Z,18.00
2022-10-01T23:08:17.814Z,15.05
2022-10-01T23:11:09.020Z,15.52
2022-10-01T23:13:38.812Z,13.23
2022-10-01T23:16:16.663Z,15.88
2022-10-01T23:18:58.613Z,15.52
2022-10-01T23:21:51.265Z,17.63
2022-10-01T23:24:57.541Z,17.65
2022-10-01T23:27:52.628Z,10.82
2022-10-01T23:30:19.951Z,16.60
2022-10-01T23:33:05.947Z,14.63
2022-10-01T23:35:48.956Z,13.75
2022-10-01T23:38:31.060Z,15.70
2022-10-01T23:41:21.635Z,15.68
2022-10-01T23:43:48.674Z,14.65
2022-10-01T23:46:29.984Z,16.40
2022-10-01T23:49:01.494Z,15.68
2022-10-01T23:51:37.896Z,15.73
2022-10-01T23:54:33.510Z,14.23
2022-10-01T23:57:12.710Z,16.02
2022-10-01T23:59:57.759Z,13.93
